sensor_id;sensor_type;location;lat;lon;timestamp;P1;durP1;ratioP1;P2;durP2;ratioP2
65822;SDS011;52585;47.566;19.056;2023-01-23T00:01:08;13.30;;;9.20;;
65822;SDS011;52585;47.566;19.056;2023-01-23T00:03:36;13.00;;;8.70;;
65822;SDS011;52585;47.566;19.056;2023-01-23T00:06:05;9.70;;;7.40;;
65822;SDS011;52585;47.566;19.056;2023-01-23T00:08:34;10.90;;;7.40;;
65822;SDS011;52585;47.566;19.056;2023-01-23T00:11:06;9.70;;;7.20;;
65822;SDS011;52585;47.566;19.056;2023-01-23T00:13:34;13.60;;;8.20;;
65822;SDS011;52585;47.566;19.056;2023-01-23T00:16:05;12.90;;;8.30;;
65822;SDS011;52585;47.566;19.056;2023-01-23T00:18:32;13.10;;;8.20;;
65822;SDS011;52585;47.566;19.056;2023-01-23T00:21:03;11.10;;;8.10;;
65822;SDS011;52585;47.566;19.056;2023-01-23T00:23:35;10.70;;;8.10;;
65822;SDS011;52585;47.566;19.056;2023-01-23T00:26:06;10.70;;;8.00;;
65822;SDS011;52585;47.566;19.056;2023-01-23T00:28:33;11.90;;;8.70;;
65822;SDS011;52585;47.566;19.056;2023-01-23T00:31:10;13.80;;;8.60;;
65822;SDS011;52585;47.566;19.056;2023-01-23T00:33:40;10.60;;;8.20;;
65822;SDS011;52585;47.566;19.056;2023-01-23T00:36:07;11.20;;;7.50;;
65822;SDS011;52585;47.566;19.056;2023-01-23T00:38:34;9.20;;;6.90;;
65822;SDS011;52585;47.566;19.056;2023-01-23T00:41:00;12.40;;;7.00;;
65822;SDS011;52585;47.566;19.056;2023-01-23T00:43:27;11.20;;;8.50;;
65822;SDS011;52585;47.566;19.056;2023-01-23T00:45:54;10.30;;;8.10;;
65822;SDS011;52585;47.566;19.056;2023-01-23T00:48:20;9.90;;;7.50;;
65822;SDS011;52585;47.566;19.056;2023-01-23T00:50:46;10.70;;;8.30;;
65822;SDS011;52585;47.566;19.056;2023-01-23T00:53:12;10.50;;;6.90;;
65822;SDS011;52585;47.566;19.056;2023-01-23T00:55:38;10.40;;;7.10;;
65822;SDS011;52585;47.566;19.056;2023-01-23T00:58:04;10.80;;;8.20;;
65822;SDS011;52585;47.566;19.056;2023-01-23T01:00:30;9.00;;;7.40;;
65822;SDS011;52585;47.566;19.056;2023-01-23T01:02:56;9.30;;;7.20;;
65822;SDS011;52585;47.566;19.056;2023-01-23T01:05:22;8.50;;;6.80;;
65822;SDS011;52585;47.566;19.056;2023-01-23T01:07:48;8.40;;;6.40;;
65822;SDS011;52585;47.566;19.056;2023-01-23T01:10:14;11.20;;;7.50;;
65822;SDS011;52585;47.566;19.056;2023-01-23T01:12:39;11.00;;;7.70;;
65822;SDS011;52585;47.566;19.056;2023-01-23T01:15:07;11.20;;;7.70;;
65822;SDS011;52585;47.566;19.056;2023-01-23T01:17:34;10.70;;;7.40;;
65822;SDS011;52585;47.566;19.056;2023-01-23T01:20:01;12.30;;;7.70;;
65822;SDS011;52585;47.566;19.056;2023-01-23T01:22:28;9.80;;;7.50;;
65822;SDS011;52585;47.566;19.056;2023-01-23T01:24:53;12.70;;;8.20;;
65822;SDS011;52585;47.566;19.056;2023-01-23T01:27:19;11.50;;;8.30;;
65822;SDS011;52585;47.566;19.056;2023-01-23T01:29:45;12.50;;;8.00;;
65822;SDS011;52585;47.566;19.056;2023-01-23T01:32:10;9.60;;;7.60;;
65822;SDS011;52585;47.566;19.056;2023-01-23T01:34:36;9.00;;;7.00;;
65822;SDS011;52585;47.566;19.056;2023-01-23T01:37:01;11.00;;;6.60;;
65822;SDS011;52585;47.566;19.056;2023-01-23T01:39:27;9.90;;;6.80;;
65822;SDS011;52585;47.566;19.056;2023-01-23T01:41:52;9.10;;;6.90;;
65822;SDS011;52585;47.566;19.056;2023-01-23T01:44:21;10.60;;;7.80;;
65822;SDS011;52585;47.566;19.056;2023-01-23T01:46:49;8.70;;;7.70;;
65822;SDS011;52585;47.566;19.056;2023-01-23T01:51:59;9.40;;;7.40;;
65822;SDS011;52585;47.566;19.056;2023-01-23T01:57:38;11.90;;;8.30;;
65822;SDS011;52585;47.566;19.056;2023-01-23T02:00:12;11.00;;;8.10;;
65822;SDS011;52585;47.566;19.056;2023-01-23T02:02:46;11.50;;;8.40;;
65822;SDS011;52585;47.566;19.056;2023-01-23T02:05:44;12.60;;;8.70;;
65822;SDS011;52585;47.566;19.056;2023-01-23T02:10:47;9.60;;;7.20;;
65822;SDS011;52585;47.566;19.056;2023-01-23T02:13:32;9.40;;;7.10;;
65822;SDS011;52585;47.566;19.056;2023-01-23T02:16:09;11.20;;;7.40;;
65822;SDS011;52585;47.566;19.056;2023-01-23T02:19:04;10.20;;;7.90;;
65822;SDS011;52585;47.566;19.056;2023-01-23T02:21:44;10.60;;;7.40;;
65822;SDS011;52585;47.566;19.056;2023-01-23T02:24:53;10.60;;;7.60;;
65822;SDS011;52585;47.566;19.056;2023-01-23T02:27:27;11.10;;;7.20;;
65822;SDS011;52585;47.566;19.056;2023-01-23T02:29:53;8.80;;;7.00;;
65822;SDS011;52585;47.566;19.056;2023-01-23T02:32:21;9.50;;;7.60;;
65822;SDS011;52585;47.566;19.056;2023-01-23T02:34:50;10.80;;;7.70;;
65822;SDS011;52585;47.566;19.056;2023-01-23T02:37:20;10.30;;;7.40;;
65822;SDS011;52585;47.566;19.056;2023-01-23T02:39:48;10.60;;;7.80;;
65822;SDS011;52585;47.566;19.056;2023-01-23T02:42:14;11.40;;;7.60;;
65822;SDS011;52585;47.566;19.056;2023-01-23T02:44:39;9.20;;;7.00;;
65822;SDS011;52585;47.566;19.056;2023-01-23T02:47:07;9.60;;;6.60;;
65822;SDS011;52585;47.566;19.056;2023-01-23T02:49:37;9.50;;;7.10;;
65822;SDS011;52585;47.566;19.056;2023-01-23T02:52:04;11.30;;;7.70;;
65822;SDS011;52585;47.566;19.056;2023-01-23T02:54:31;10.40;;;7.80;;
65822;SDS011;52585;47.566;19.056;2023-01-23T02:56:57;11.60;;;7.80;;
65822;SDS011;52585;47.566;19.056;2023-01-23T02:59:23;10.20;;;7.40;;
65822;SDS011;52585;47.566;19.056;2023-01-23T03:02:08;12.40;;;8.00;;
65822;SDS011;52585;47.566;19.056;2023-01-23T03:04:34;11.20;;;8.70;;
65822;SDS011;52585;47.566;19.056;2023-01-23T03:06:59;11.10;;;7.90;;
65822;SDS011;52585;47.566;19.056;2023-01-23T03:09:25;12.00;;;8.60;;
65822;SDS011;52585;47.566;19.056;2023-01-23T03:11:51;13.70;;;8.40;;
65822;SDS011;52585;47.566;19.056;2023-01-23T03:14:19;9.30;;;7.20;;
65822;SDS011;52585;47.566;19.056;2023-01-23T03:16:46;9.40;;;7.20;;
65822;SDS011;52585;47.566;19.056;2023-01-23T03:19:20;10.70;;;7.40;;
65822;SDS011;52585;47.566;19.056;2023-01-23T03:21:48;11.90;;;7.80;;
65822;SDS011;52585;47.566;19.056;2023-01-23T03:24:14;10.60;;;7.40;;
65822;SDS011;52585;47.566;19.056;2023-01-23T03:26:42;8.90;;;6.30;;
65822;SDS011;52585;47.566;19.056;2023-01-23T03:29:21;8.90;;;6.20;;
65822;SDS011;52585;47.566;19.056;2023-01-23T03:32:08;9.80;;;6.90;;
65822;SDS011;52585;47.566;19.056;2023-01-23T03:34:36;10.50;;;7.00;;
65822;SDS011;52585;47.566;19.056;2023-01-23T03:37:02;9.30;;;7.40;;
65822;SDS011;52585;47.566;19.056;2023-01-23T03:39:28;8.80;;;6.90;;
65822;SDS011;52585;47.566;19.056;2023-01-23T03:42:12;10.10;;;6.70;;
65822;SDS011;52585;47.566;19.056;2023-01-23T03:44:38;7.20;;;6.30;;
65822;SDS011;52585;47.566;19.056;2023-01-23T03:47:05;8.50;;;6.10;;
65822;SDS011;52585;47.566;19.056;2023-01-23T03:49:31;8.90;;;6.20;;
65822;SDS011;52585;47.566;19.056;2023-01-23T03:51:57;8.60;;;6.00;;
65822;SDS011;52585;47.566;19.056;2023-01-23T03:54:24;7.80;;;6.10;;
65822;SDS011;52585;47.566;19.056;2023-01-23T03:56:50;12.60;;;6.40;;
65822;SDS011;52585;47.566;19.056;2023-01-23T03:59:16;8.50;;;5.70;;
65822;SDS011;52585;47.566;19.056;2023-01-23T04:01:41;7.10;;;5.50;;
65822;SDS011;52585;47.566;19.056;2023-01-23T04:04:07;6.80;;;5.00;;
65822;SDS011;52585;47.566;19.056;2023-01-23T04:06:33;6.10;;;5.30;;
65822;SDS011;52585;47.566;19.056;2023-01-23T04:08:58;7.00;;;5.70;;
65822;SDS011;52585;47.566;19.056;2023-01-23T04:11:24;6.10;;;5.30;;
65822;SDS011;52585;47.566;19.056;2023-01-23T04:13:51;7.50;;;6.10;;
65822;SDS011;52585;47.566;19.056;2023-01-23T04:16:18;7.30;;;5.60;;
65822;SDS011;52585;47.566;19.056;2023-01-23T04:18:44;7.80;;;6.00;;
65822;SDS011;52585;47.566;19.056;2023-01-23T04:21:09;7.30;;;5.80;;
65822;SDS011;52585;47.566;19.056;2023-01-23T04:23:35;6.60;;;5.40;;
65822;SDS011;52585;47.566;19.056;2023-01-23T04:26:01;7.90;;;5.70;;
65822;SDS011;52585;47.566;19.056;2023-01-23T04:28:27;6.10;;;5.40;;
65822;SDS011;52585;47.566;19.056;2023-01-23T04:30:52;7.10;;;5.20;;
65822;SDS011;52585;47.566;19.056;2023-01-23T04:33:19;5.50;;;4.80;;
65822;SDS011;52585;47.566;19.056;2023-01-23T04:36:00;6.10;;;4.50;;
65822;SDS011;52585;47.566;19.056;2023-01-23T04:38:28;4.40;;;4.00;;
65822;SDS011;52585;47.566;19.056;2023-01-23T04:40:54;5.80;;;5.00;;
65822;SDS011;52585;47.566;19.056;2023-01-23T04:43:20;6.40;;;4.70;;
65822;SDS011;52585;47.566;19.056;2023-01-23T04:45:49;6.50;;;5.10;;
65822;SDS011;52585;47.566;19.056;2023-01-23T04:48:16;5.90;;;4.50;;
65822;SDS011;52585;47.566;19.056;2023-01-23T04:50:42;6.80;;;4.80;;
65822;SDS011;52585;47.566;19.056;2023-01-23T04:53:08;5.80;;;4.70;;
65822;SDS011;52585;47.566;19.056;2023-01-23T04:55:34;4.80;;;4.30;;
65822;SDS011;52585;47.566;19.056;2023-01-23T04:58:00;6.80;;;4.40;;
65822;SDS011;52585;47.566;19.056;2023-01-23T05:00:26;4.90;;;4.40;;
65822;SDS011;52585;47.566;19.056;2023-01-23T05:02:54;5.20;;;4.20;;
65822;SDS011;52585;47.566;19.056;2023-01-23T05:05:21;6.10;;;4.20;;
65822;SDS011;52585;47.566;19.056;2023-01-23T05:07:48;6.30;;;4.40;;
65822;SDS011;52585;47.566;19.056;2023-01-23T05:10:14;4.00;;;3.60;;
65822;SDS011;52585;47.566;19.056;2023-01-23T05:12:40;5.00;;;3.60;;
65822;SDS011;52585;47.566;19.056;2023-01-23T05:15:07;4.10;;;3.30;;
65822;SDS011;52585;47.566;19.056;2023-01-23T05:17:35;4.50;;;3.80;;
65822;SDS011;52585;47.566;19.056;2023-01-23T05:20:01;4.70;;;3.80;;
65822;SDS011;52585;47.566;19.056;2023-01-23T05:22:26;5.30;;;4.00;;
65822;SDS011;52585;47.566;19.056;2023-01-23T05:24:52;4.80;;;3.50;;
65822;SDS011;52585;47.566;19.056;2023-01-23T05:27:17;5.50;;;3.80;;
65822;SDS011;52585;47.566;19.056;2023-01-23T05:29:43;4.40;;;3.50;;
65822;SDS011;52585;47.566;19.056;2023-01-23T05:32:08;4.30;;;3.80;;
65822;SDS011;52585;47.566;19.056;2023-01-23T05:34:34;5.80;;;4.20;;
65822;SDS011;52585;47.566;19.056;2023-01-23T05:37:00;4.50;;;4.10;;
65822;SDS011;52585;47.566;19.056;2023-01-23T05:39:26;4.50;;;4.10;;
65822;SDS011;52585;47.566;19.056;2023-01-23T05:41:51;4.40;;;4.00;;
65822;SDS011;52585;47.566;19.056;2023-01-23T05:44:17;4.60;;;3.90;;
65822;SDS011;52585;47.566;19.056;2023-01-23T05:46:42;4.30;;;3.80;;
65822;SDS011;52585;47.566;19.056;2023-01-23T05:49:08;3.20;;;2.90;;
65822;SDS011;52585;47.566;19.056;2023-01-23T05:51:34;3.60;;;3.30;;
65822;SDS011;52585;47.566;19.056;2023-01-23T05:54:00;4.80;;;3.80;;
65822;SDS011;52585;47.566;19.056;2023-01-23T05:56:27;4.10;;;3.80;;
65822;SDS011;52585;47.566;19.056;2023-01-23T05:58:53;4.50;;;4.00;;
65822;SDS011;52585;47.566;19.056;2023-01-23T06:01:19;3.40;;;3.20;;
65822;SDS011;52585;47.566;19.056;2023-01-23T06:03:46;3.60;;;3.20;;
65822;SDS011;52585;47.566;19.056;2023-01-23T06:06:12;3.70;;;3.40;;
65822;SDS011;52585;47.566;19.056;2023-01-23T06:08:38;4.20;;;3.80;;
65822;SDS011;52585;47.566;19.056;2023-01-23T06:11:04;3.60;;;3.20;;
65822;SDS011;52585;47.566;19.056;2023-01-23T06:13:30;3.50;;;3.20;;
65822;SDS011;52585;47.566;19.056;2023-01-23T06:15:56;3.40;;;3.10;;
65822;SDS011;52585;47.566;19.056;2023-01-23T06:18:23;3.60;;;2.90;;
65822;SDS011;52585;47.566;19.056;2023-01-23T06:20:49;5.40;;;4.40;;
65822;SDS011;52585;47.566;19.056;2023-01-23T06:23:15;8.00;;;4.50;;
65822;SDS011;52585;47.566;19.056;2023-01-23T06:25:41;5.10;;;4.30;;
65822;SDS011;52585;47.566;19.056;2023-01-23T06:28:07;6.00;;;4.50;;
65822;SDS011;52585;47.566;19.056;2023-01-23T06:30:33;6.10;;;4.30;;
65822;SDS011;52585;47.566;19.056;2023-01-23T06:32:59;5.30;;;4.20;;
65822;SDS011;52585;47.566;19.056;2023-01-23T06:35:24;4.90;;;4.20;;
65822;SDS011;52585;47.566;19.056;2023-01-23T06:37:50;8.10;;;4.70;;
65822;SDS011;52585;47.566;19.056;2023-01-23T06:40:16;5.50;;;4.40;;
65822;SDS011;52585;47.566;19.056;2023-01-23T06:42:42;4.80;;;4.10;;
65822;SDS011;52585;47.566;19.056;2023-01-23T06:45:09;4.30;;;3.70;;
65822;SDS011;52585;47.566;19.056;2023-01-23T06:47:36;5.10;;;4.40;;
65822;SDS011;52585;47.566;19.056;2023-01-23T06:50:02;4.30;;;3.80;;
65822;SDS011;52585;47.566;19.056;2023-01-23T06:52:29;6.70;;;4.60;;
65822;SDS011;52585;47.566;19.056;2023-01-23T06:54:55;4.40;;;3.90;;
65822;SDS011;52585;47.566;19.056;2023-01-23T06:57:21;4.80;;;4.20;;
65822;SDS011;52585;47.566;19.056;2023-01-23T06:59:47;5.30;;;4.20;;
65822;SDS011;52585;47.566;19.056;2023-01-23T07:02:13;5.50;;;4.20;;
65822;SDS011;52585;47.566;19.056;2023-01-23T07:04:38;5.40;;;4.40;;
65822;SDS011;52585;47.566;19.056;2023-01-23T07:07:04;4.90;;;3.80;;
65822;SDS011;52585;47.566;19.056;2023-01-23T07:09:30;4.60;;;3.70;;
65822;SDS011;52585;47.566;19.056;2023-01-23T07:11:56;3.80;;;3.40;;
65822;SDS011;52585;47.566;19.056;2023-01-23T07:14:22;4.30;;;3.90;;
65822;SDS011;52585;47.566;19.056;2023-01-23T07:16:47;6.10;;;3.90;;
65822;SDS011;52585;47.566;19.056;2023-01-23T07:19:13;5.60;;;3.70;;
65822;SDS011;52585;47.566;19.056;2023-01-23T07:21:38;4.90;;;4.30;;
65822;SDS011;52585;47.566;19.056;2023-01-23T07:24:04;7.60;;;4.30;;
65822;SDS011;52585;47.566;19.056;2023-01-23T07:26:30;5.70;;;4.20;;
65822;SDS011;52585;47.566;19.056;2023-01-23T07:28:56;4.80;;;4.40;;
65822;SDS011;52585;47.566;19.056;2023-01-23T07:31:22;6.00;;;4.70;;
65822;SDS011;52585;47.566;19.056;2023-01-23T07:33:48;6.20;;;5.00;;
65822;SDS011;52585;47.566;19.056;2023-01-23T07:36:13;6.70;;;4.80;;
65822;SDS011;52585;47.566;19.056;2023-01-23T07:38:39;5.10;;;4.70;;
65822;SDS011;52585;47.566;19.056;2023-01-23T07:41:06;4.80;;;4.00;;
65822;SDS011;52585;47.566;19.056;2023-01-23T07:43:31;5.60;;;4.90;;
65822;SDS011;52585;47.566;19.056;2023-01-23T07:46:00;6.10;;;4.50;;
65822;SDS011;52585;47.566;19.056;2023-01-23T07:48:27;4.70;;;4.30;;
65822;SDS011;52585;47.566;19.056;2023-01-23T07:50:54;7.10;;;4.70;;
65822;SDS011;52585;47.566;19.056;2023-01-23T07:53:20;5.30;;;4.50;;
65822;SDS011;52585;47.566;19.056;2023-01-23T07:55:45;6.20;;;4.70;;
65822;SDS011;52585;47.566;19.056;2023-01-23T07:58:11;5.10;;;4.20;;
65822;SDS011;52585;47.566;19.056;2023-01-23T08:00:37;6.00;;;4.80;;
65822;SDS011;52585;47.566;19.056;2023-01-23T08:03:03;5.50;;;4.30;;
65822;SDS011;52585;47.566;19.056;2023-01-23T08:05:28;4.70;;;4.20;;
65822;SDS011;52585;47.566;19.056;2023-01-23T08:07:54;4.70;;;4.20;;
65822;SDS011;52585;47.566;19.056;2023-01-23T08:10:20;4.80;;;4.00;;
65822;SDS011;52585;47.566;19.056;2023-01-23T08:12:45;5.30;;;4.20;;
65822;SDS011;52585;47.566;19.056;2023-01-23T08:15:11;4.60;;;3.60;;
65822;SDS011;52585;47.566;19.056;2023-01-23T08:17:36;4.50;;;3.50;;
65822;SDS011;52585;47.566;19.056;2023-01-23T08:20:02;3.80;;;3.40;;
65822;SDS011;52585;47.566;19.056;2023-01-23T08:22:29;3.70;;;3.40;;
65822;SDS011;52585;47.566;19.056;2023-01-23T08:24:54;3.70;;;2.90;;
65822;SDS011;52585;47.566;19.056;2023-01-23T08:27:20;3.80;;;3.40;;
65822;SDS011;52585;47.566;19.056;2023-01-23T08:29:45;4.10;;;3.00;;
65822;SDS011;52585;47.566;19.056;2023-01-23T08:32:11;3.90;;;3.20;;
65822;SDS011;52585;47.566;19.056;2023-01-23T08:34:37;3.20;;;2.40;;
65822;SDS011;52585;47.566;19.056;2023-01-23T08:37:02;3.50;;;2.70;;
65822;SDS011;52585;47.566;19.056;2023-01-23T08:39:28;3.60;;;2.60;;
65822;SDS011;52585;47.566;19.056;2023-01-23T08:41:53;3.50;;;2.90;;
65822;SDS011;52585;47.566;19.056;2023-01-23T08:44:19;5.10;;;3.40;;
65822;SDS011;52585;47.566;19.056;2023-01-23T08:46:45;3.90;;;2.90;;
65822;SDS011;52585;47.566;19.056;2023-01-23T08:49:11;5.20;;;3.10;;
65822;SDS011;52585;47.566;19.056;2023-01-23T08:51:37;3.10;;;2.80;;
65822;SDS011;52585;47.566;19.056;2023-01-23T08:54:03;3.90;;;2.80;;
65822;SDS011;52585;47.566;19.056;2023-01-23T08:56:30;4.50;;;3.50;;
65822;SDS011;52585;47.566;19.056;2023-01-23T08:58:56;3.30;;;3.00;;
65822;SDS011;52585;47.566;19.056;2023-01-23T09:01:24;4.70;;;3.00;;
65822;SDS011;52585;47.566;19.056;2023-01-23T09:03:51;3.70;;;3.10;;
65822;SDS011;52585;47.566;19.056;2023-01-23T09:06:19;3.60;;;3.30;;
65822;SDS011;52585;47.566;19.056;2023-01-23T09:08:46;5.10;;;3.10;;
65822;SDS011;52585;47.566;19.056;2023-01-23T09:11:12;3.90;;;3.00;;
65822;SDS011;52585;47.566;19.056;2023-01-23T09:13:39;3.30;;;2.90;;
65822;SDS011;52585;47.566;19.056;2023-01-23T09:16:06;3.30;;;2.90;;
65822;SDS011;52585;47.566;19.056;2023-01-23T09:18:33;2.90;;;2.60;;
65822;SDS011;52585;47.566;19.056;2023-01-23T09:20:59;3.00;;;2.70;;
65822;SDS011;52585;47.566;19.056;2023-01-23T09:23:24;3.90;;;2.50;;
65822;SDS011;52585;47.566;19.056;2023-01-23T09:25:50;2.90;;;2.60;;
65822;SDS011;52585;47.566;19.056;2023-01-23T09:28:16;3.50;;;2.60;;
65822;SDS011;52585;47.566;19.056;2023-01-23T09:30:42;5.00;;;2.80;;
65822;SDS011;52585;47.566;19.056;2023-01-23T09:33:08;3.50;;;3.00;;
65822;SDS011;52585;47.566;19.056;2023-01-23T09:35:33;5.00;;;3.20;;
65822;SDS011;52585;47.566;19.056;2023-01-23T09:38:00;4.10;;;2.90;;
65822;SDS011;52585;47.566;19.056;2023-01-23T09:40:40;4.70;;;3.70;;
65822;SDS011;52585;47.566;19.056;2023-01-23T09:43:19;3.30;;;2.80;;
65822;SDS011;52585;47.566;19.056;2023-01-23T09:46:11;3.10;;;2.70;;
65822;SDS011;52585;47.566;19.056;2023-01-23T09:48:52;3.80;;;2.80;;
65822;SDS011;52585;47.566;19.056;2023-01-23T09:54:04;4.20;;;3.00;;
65822;SDS011;52585;47.566;19.056;2023-01-23T09:56:43;3.70;;;2.90;;
65822;SDS011;52585;47.566;19.056;2023-01-23T10:01:36;3.20;;;2.90;;
65822;SDS011;52585;47.566;19.056;2023-01-23T10:04:03;3.00;;;2.70;;
65822;SDS011;52585;47.566;19.056;2023-01-23T10:06:32;4.60;;;3.10;;
65822;SDS011;52585;47.566;19.056;2023-01-23T10:20:56;3.60;;;2.70;;
65822;SDS011;52585;47.566;19.056;2023-01-23T10:23:40;3.50;;;2.70;;
65822;SDS011;52585;47.566;19.056;2023-01-23T10:26:15;3.30;;;3.00;;
65822;SDS011;52585;47.566;19.056;2023-01-23T10:28:46;3.20;;;3.00;;
65822;SDS011;52585;47.566;19.056;2023-01-23T10:32:13;2.70;;;2.50;;
65822;SDS011;52585;47.566;19.056;2023-01-23T10:34:50;2.70;;;2.40;;
65822;SDS011;52585;47.566;19.056;2023-01-23T10:37:49;4.90;;;3.20;;
65822;SDS011;52585;47.566;19.056;2023-01-23T10:40:22;2.70;;;2.50;;
65822;SDS011;52585;47.566;19.056;2023-01-23T10:43:16;4.40;;;3.40;;
65822;SDS011;52585;47.566;19.056;2023-01-23T10:45:46;3.60;;;3.30;;
65822;SDS011;52585;47.566;19.056;2023-01-23T10:48:52;4.10;;;3.40;;
65822;SDS011;52585;47.566;19.056;2023-01-23T10:51:27;3.80;;;3.00;;
65822;SDS011;52585;47.566;19.056;2023-01-23T10:54:05;4.50;;;3.50;;
65822;SDS011;52585;47.566;19.056;2023-01-23T10:56:50;3.70;;;3.20;;
65822;SDS011;52585;47.566;19.056;2023-01-23T10:59:35;4.60;;;3.50;;
65822;SDS011;52585;47.566;19.056;2023-01-23T11:04:44;4.10;;;3.10;;
65822;SDS011;52585;47.566;19.056;2023-01-23T11:07:20;3.30;;;3.00;;
65822;SDS011;52585;47.566;19.056;2023-01-23T11:10:01;4.00;;;2.80;;
65822;SDS011;52585;47.566;19.056;2023-01-23T11:12:54;5.30;;;2.80;;
65822;SDS011;52585;47.566;19.056;2023-01-23T11:15:26;4.10;;;3.40;;
65822;SDS011;52585;47.566;19.056;2023-01-23T11:17:59;3.80;;;3.20;;
65822;SDS011;52585;47.566;19.056;2023-01-23T11:20:39;3.90;;;2.80;;
65822;SDS011;52585;47.566;19.056;2023-01-23T11:28:16;3.90;;;2.80;;
65822;SDS011;52585;47.566;19.056;2023-01-23T11:38:49;4.10;;;3.10;;
65822;SDS011;52585;47.566;19.056;2023-01-23T11:41:19;4.50;;;3.70;;
65822;SDS011;52585;47.566;19.056;2023-01-23T11:51:48;4.20;;;3.30;;
65822;SDS011;52585;47.566;19.056;2023-01-23T11:57:35;4.10;;;2.30;;
65822;SDS011;52585;47.566;19.056;2023-01-23T12:00:28;3.80;;;2.10;;
65822;SDS011;52585;47.566;19.056;2023-01-23T12:08:55;4.40;;;2.20;;
65822;SDS011;52585;47.566;19.056;2023-01-23T12:11:24;3.30;;;2.50;;
65822;SDS011;52585;47.566;19.056;2023-01-23T12:14:11;3.60;;;2.80;;
65822;SDS011;52585;47.566;19.056;2023-01-23T12:23:00;2.40;;;2.10;;
65822;SDS011;52585;47.566;19.056;2023-01-23T12:25:37;2.30;;;2.10;;
65822;SDS011;52585;47.566;19.056;2023-01-23T12:37:39;2.30;;;2.00;;
65822;SDS011;52585;47.566;19.056;2023-01-23T12:40:42;3.30;;;2.10;;
65822;SDS011;52585;47.566;19.056;2023-01-23T12:43:18;2.30;;;2.10;;
65822;SDS011;52585;47.566;19.056;2023-01-23T12:48:43;2.90;;;2.30;;
65822;SDS011;52585;47.566;19.056;2023-01-23T12:51:19;2.80;;;1.90;;
65822;SDS011;52585;47.566;19.056;2023-01-23T12:53:52;2.70;;;2.50;;
65822;SDS011;52585;47.566;19.056;2023-01-23T12:56:32;1.90;;;1.80;;
65822;SDS011;52585;47.566;19.056;2023-01-23T13:11:14;3.70;;;2.10;;
65822;SDS011;52585;47.566;19.056;2023-01-23T13:14:15;2.50;;;2.00;;
65822;SDS011;52585;47.566;19.056;2023-01-23T13:16:47;3.80;;;2.20;;
65822;SDS011;52585;47.566;19.056;2023-01-23T13:19:30;2.70;;;2.00;;
65822;SDS011;52585;47.566;19.056;2023-01-23T13:24:53;3.90;;;2.00;;
65822;SDS011;52585;47.566;19.056;2023-01-23T13:27:56;2.40;;;2.20;;
65822;SDS011;52585;47.566;19.056;2023-01-23T13:32:48;2.20;;;1.90;;
65822;SDS011;52585;47.566;19.056;2023-01-23T13:44:03;4.60;;;2.00;;
65822;SDS011;52585;47.566;19.056;2023-01-23T13:52:21;2.90;;;2.20;;
65822;SDS011;52585;47.566;19.056;2023-01-23T13:55:32;3.00;;;2.70;;
65822;SDS011;52585;47.566;19.056;2023-01-23T13:58:24;3.10;;;2.80;;
65822;SDS011;52585;47.566;19.056;2023-01-23T14:01:04;2.60;;;2.40;;
65822;SDS011;52585;47.566;19.056;2023-01-23T14:04:00;4.60;;;2.30;;
65822;SDS011;52585;47.566;19.056;2023-01-23T14:06:50;2.70;;;2.30;;
65822;SDS011;52585;47.566;19.056;2023-01-23T14:09:28;3.10;;;2.40;;
65822;SDS011;52585;47.566;19.056;2023-01-23T14:12:00;2.40;;;2.00;;
65822;SDS011;52585;47.566;19.056;2023-01-23T14:14:37;2.30;;;2.10;;
65822;SDS011;52585;47.566;19.056;2023-01-23T14:17:22;2.50;;;2.10;;
65822;SDS011;52585;47.566;19.056;2023-01-23T14:22:27;3.50;;;2.40;;
65822;SDS011;52585;47.566;19.056;2023-01-23T14:24:54;4.40;;;2.40;;
65822;SDS011;52585;47.566;19.056;2023-01-23T14:27:28;3.40;;;2.20;;
65822;SDS011;52585;47.566;19.056;2023-01-23T14:30:00;4.60;;;2.50;;
65822;SDS011;52585;47.566;19.056;2023-01-23T14:32:30;3.80;;;2.80;;
65822;SDS011;52585;47.566;19.056;2023-01-23T14:34:58;2.50;;;2.30;;
65822;SDS011;52585;47.566;19.056;2023-01-23T14:37:25;3.10;;;2.50;;
65822;SDS011;52585;47.566;19.056;2023-01-23T14:39:53;2.60;;;2.30;;
65822;SDS011;52585;47.566;19.056;2023-01-23T14:42:22;2.30;;;2.00;;
65822;SDS011;52585;47.566;19.056;2023-01-23T14:44:54;4.50;;;2.10;;
65822;SDS011;52585;47.566;19.056;2023-01-23T14:49:51;3.90;;;2.00;;
65822;SDS011;52585;47.566;19.056;2023-01-23T14:52:27;2.90;;;2.30;;
65822;SDS011;52585;47.566;19.056;2023-01-23T14:54:55;3.20;;;2.20;;
65822;SDS011;52585;47.566;19.056;2023-01-23T14:57:22;2.50;;;2.30;;
65822;SDS011;52585;47.566;19.056;2023-01-23T14:59:55;3.80;;;2.30;;
65822;SDS011;52585;47.566;19.056;2023-01-23T15:05:18;5.00;;;2.40;;
65822;SDS011;52585;47.566;19.056;2023-01-23T15:10:23;3.10;;;2.30;;
65822;SDS011;52585;47.566;19.056;2023-01-23T15:15:53;3.80;;;2.20;;
65822;SDS011;52585;47.566;19.056;2023-01-23T15:18:24;2.60;;;2.20;;
65822;SDS011;52585;47.566;19.056;2023-01-23T15:20:59;3.10;;;2.20;;
65822;SDS011;52585;47.566;19.056;2023-01-23T15:23:34;2.40;;;2.20;;
65822;SDS011;52585;47.566;19.056;2023-01-23T15:31:31;4.40;;;2.70;;
65822;SDS011;52585;47.566;19.056;2023-01-23T15:39:39;2.90;;;2.30;;
65822;SDS011;52585;47.566;19.056;2023-01-23T15:44:42;3.10;;;2.70;;
65822;SDS011;52585;47.566;19.056;2023-01-23T15:47:08;2.50;;;2.30;;
65822;SDS011;52585;47.566;19.056;2023-01-23T15:49:36;4.90;;;3.50;;
65822;SDS011;52585;47.566;19.056;2023-01-23T15:52:49;4.40;;;3.00;;
65822;SDS011;52585;47.566;19.056;2023-01-23T15:55:17;4.70;;;3.00;;
65822;SDS011;52585;47.566;19.056;2023-01-23T15:57:44;3.60;;;2.90;;
65822;SDS011;52585;47.566;19.056;2023-01-23T16:00:22;6.00;;;3.30;;
65822;SDS011;52585;47.566;19.056;2023-01-23T16:02:51;6.70;;;3.20;;
65822;SDS011;52585;47.566;19.056;2023-01-23T16:05:22;6.80;;;3.50;;
65822;SDS011;52585;47.566;19.056;2023-01-23T16:07:50;7.40;;;3.00;;
65822;SDS011;52585;47.566;19.056;2023-01-23T16:10:34;6.30;;;3.50;;
65822;SDS011;52585;47.566;19.056;2023-01-23T16:13:02;7.20;;;3.30;;
65822;SDS011;52585;47.566;19.056;2023-01-23T16:15:32;5.40;;;3.40;;
65822;SDS011;52585;47.566;19.056;2023-01-23T16:18:00;7.80;;;3.40;;
65822;SDS011;52585;47.566;19.056;2023-01-23T16:20:31;6.00;;;3.30;;
65822;SDS011;52585;47.566;19.056;2023-01-23T16:23:17;4.50;;;3.10;;
65822;SDS011;52585;47.566;19.056;2023-01-23T16:25:46;6.60;;;3.60;;
65822;SDS011;52585;47.566;19.056;2023-01-23T16:28:23;7.20;;;3.50;;
65822;SDS011;52585;47.566;19.056;2023-01-23T16:30:53;3.70;;;3.40;;
65822;SDS011;52585;47.566;19.056;2023-01-23T16:33:20;7.30;;;3.80;;
65822;SDS011;52585;47.566;19.056;2023-01-23T16:35:47;7.00;;;3.30;;
65822;SDS011;52585;47.566;19.056;2023-01-23T16:38:22;6.60;;;3.50;;
65822;SDS011;52585;47.566;19.056;2023-01-23T16:40:51;6.00;;;3.30;;
65822;SDS011;52585;47.566;19.056;2023-01-23T16:43:19;6.40;;;3.40;;
65822;SDS011;52585;47.566;19.056;2023-01-23T16:45:46;8.10;;;4.30;;
65822;SDS011;52585;47.566;19.056;2023-01-23T16:48:11;8.70;;;5.70;;
65822;SDS011;52585;47.566;19.056;2023-01-23T16:50:40;10.80;;;6.20;;
65822;SDS011;52585;47.566;19.056;2023-01-23T16:53:34;8.80;;;6.60;;
65822;SDS011;52585;47.566;19.056;2023-01-23T16:58:35;13.60;;;7.80;;
65822;SDS011;52585;47.566;19.056;2023-01-23T17:01:12;12.10;;;7.20;;
65822;SDS011;52585;47.566;19.056;2023-01-23T17:03:40;15.40;;;6.70;;
65822;SDS011;52585;47.566;19.056;2023-01-23T17:06:14;13.30;;;6.20;;
65822;SDS011;52585;47.566;19.056;2023-01-23T17:08:42;13.40;;;6.70;;
65822;SDS011;52585;47.566;19.056;2023-01-23T17:11:16;14.60;;;7.00;;